sensor_id;sensor_type;location;lat;lon;timestamp;P1;durP1;ratioP1;P2;durP2;ratioP2
20589;SDS011;10453;50.810;12.540;2022-09-09T00:03:05;6.70;;;2.28;;
20589;SDS011;10453;50.810;12.540;2022-09-09T00:07:41;5.68;;;1.92;;
20589;SDS011;10453;50.810;12.540;2022-09-09T00:12:15;4.75;;;2.50;;
20589;SDS011;10453;50.810;12.540;2022-09-09T00:16:40;6.30;;;2.90;;
20589;SDS011;10453;50.810;12.540;2022-09-09T00:21:06;7.75;;;2.58;;
20589;SDS011;10453;50.810;12.540;2022-09-09T00:25:35;5.35;;;2.30;;
20589;SDS011;10453;50.810;12.540;2022-09-09T00:30:12;3.10;;;2.22;;
20589;SDS011;10453;50.810;12.540;2022-09-09T00:34:35;5.20;;;2.55;;
20589;SDS011;10453;50.810;12.540;2022-09-09T00:38:56;6.72;;;2.70;;
20589;SDS011;10453;50.810;12.540;2022-09-09T00:43:29;5.38;;;2.60;;
20589;SDS011;10453;50.810;12.540;2022-09-09T00:47:52;3.67;;;2.30;;
20589;SDS011;10453;50.810;12.540;2022-09-09T00:56:39;5.68;;;2.45;;
20589;SDS011;10453;50.810;12.540;2022-09-09T01:01:09;2.90;;;2.20;;
20589;SDS011;10453;50.810;12.540;2022-09-09T01:10:11;7.82;;;2.47;;
20589;SDS011;10453;50.810;12.540;2022-09-09T01:14:47;7.10;;;2.80;;
20589;SDS011;10453;50.810;12.540;2022-09-09T01:19:09;6.78;;;2.28;;
20589;SDS011;10453;50.810;12.540;2022-09-09T01:28:16;6.88;;;2.80;;
20589;SDS011;10453;50.810;12.540;2022-09-09T01:37:10;3.45;;;2.25;;
20589;SDS011;10453;50.810;12.540;2022-09-09T01:41:29;5.95;;;2.47;;
20589;SDS011;10453;50.810;12.540;2022-09-09T01:45:47;7.32;;;2.50;;
20589;SDS011;10453;50.810;12.540;2022-09-09T01:50:08;3.65;;;2.55;;
20589;SDS011;10453;50.810;12.540;2022-09-09T01:54:29;4.50;;;2.75;;
20589;SDS011;10453;50.810;12.540;2022-09-09T02:03:44;8.52;;;2.28;;
20589;SDS011;10453;50.810;12.540;2022-09-09T02:08:08;7.43;;;3.10;;
20589;SDS011;10453;50.810;12.540;2022-09-09T02:12:28;5.70;;;2.53;;
20589;SDS011;10453;50.810;12.540;2022-09-09T02:21:06;5.47;;;2.08;;
20589;SDS011;10453;50.810;12.540;2022-09-09T02:25:28;4.97;;;2.70;;
20589;SDS011;10453;50.810;12.540;2022-09-09T02:29:46;7.23;;;3.00;;
20589;SDS011;10453;50.810;12.540;2022-09-09T02:34:05;7.38;;;2.45;;
20589;SDS011;10453;50.810;12.540;2022-09-09T02:38:28;3.90;;;2.42;;
20589;SDS011;10453;50.810;12.540;2022-09-09T02:42:49;5.78;;;2.30;;
20589;SDS011;10453;50.810;12.540;2022-09-09T02:47:26;6.15;;;2.20;;
20589;SDS011;10453;50.810;12.540;2022-09-09T02:51:57;3.78;;;1.92;;
20589;SDS011;10453;50.810;12.540;2022-09-09T02:56:21;5.70;;;2.00;;
20589;SDS011;10453;50.810;12.540;2022-09-09T03:00:42;6.00;;;1.95;;
20589;SDS011;10453;50.810;12.540;2022-09-09T03:05:02;5.35;;;2.20;;
20589;SDS011;10453;50.810;12.540;2022-09-09T03:09:19;4.90;;;2.13;;
20589;SDS011;10453;50.810;12.540;2022-09-09T03:13:37;7.20;;;2.33;;
20589;SDS011;10453;50.810;12.540;2022-09-09T03:17:54;5.43;;;2.08;;
20589;SDS011;10453;50.810;12.540;2022-09-09T03:22:13;5.55;;;2.30;;
20589;SDS011;10453;50.810;12.540;2022-09-09T03:26:30;5.80;;;2.00;;
20589;SDS011;10453;50.810;12.540;2022-09-09T03:30:48;6.72;;;2.22;;
20589;SDS011;10453;50.810;12.540;2022-09-09T03:35:05;9.00;;;2.17;;
20589;SDS011;10453;50.810;12.540;2022-09-09T03:39:23;7.72;;;2.25;;
20589;SDS011;10453;50.810;12.540;2022-09-09T03:43:40;3.67;;;1.95;;
20589;SDS011;10453;50.810;12.540;2022-09-09T03:47:58;6.22;;;1.90;;
20589;SDS011;10453;50.810;12.540;2022-09-09T03:52:16;3.08;;;1.95;;
20589;SDS011;10453;50.810;12.540;2022-09-09T03:56:39;3.75;;;1.85;;
20589;SDS011;10453;50.810;12.540;2022-09-09T04:05:16;4.32;;;1.85;;
20589;SDS011;10453;50.810;12.540;2022-09-09T04:09:33;4.97;;;1.73;;
20589;SDS011;10453;50.810;12.540;2022-09-09T04:13:51;6.43;;;1.85;;
20589;SDS011;10453;50.810;12.540;2022-09-09T04:18:08;5.75;;;1.77;;
20589;SDS011;10453;50.810;12.540;2022-09-09T04:22:26;6.03;;;1.55;;
20589;SDS011;10453;50.810;12.540;2022-09-09T04:26:43;3.80;;;1.40;;
20589;SDS011;10453;50.810;12.540;2022-09-09T04:31:14;4.35;;;1.55;;
20589;SDS011;10453;50.810;12.540;2022-09-09T04:35:34;5.22;;;1.92;;
20589;SDS011;10453;50.810;12.540;2022-09-09T04:39:52;2.65;;;0.95;;
20589;SDS011;10453;50.810;12.540;2022-09-09T04:44:09;4.65;;;1.20;;
20589;SDS011;10453;50.810;12.540;2022-09-09T04:48:26;3.80;;;1.20;;
20589;SDS011;10453;50.810;12.540;2022-09-09T04:52:44;4.15;;;1.50;;
20589;SDS011;10453;50.810;12.540;2022-09-09T04:57:01;5.40;;;1.15;;
20589;SDS011;10453;50.810;12.540;2022-09-09T05:01:20;4.15;;;1.30;;
20589;SDS011;10453;50.810;12.540;2022-09-09T05:05:38;3.88;;;1.20;;
20589;SDS011;10453;50.810;12.540;2022-09-09T05:09:56;6.00;;;1.45;;
20589;SDS011;10453;50.810;12.540;2022-09-09T05:14:13;4.28;;;1.20;;
20589;SDS011;10453;50.810;12.540;2022-09-09T05:18:31;2.50;;;1.30;;
20589;SDS011;10453;50.810;12.540;2022-09-09T05:22:48;6.28;;;1.70;;
20589;SDS011;10453;50.810;12.540;2022-09-09T05:27:13;5.00;;;1.08;;
20589;SDS011;10453;50.810;12.540;2022-09-09T05:31:30;6.65;;;1.38;;
20589;SDS011;10453;50.810;12.540;2022-09-09T05:35:47;7.30;;;1.45;;
20589;SDS011;10453;50.810;12.540;2022-09-09T05:40:11;3.03;;;1.35;;
20589;SDS011;10453;50.810;12.540;2022-09-09T05:44:29;2.72;;;1.30;;
20589;SDS011;10453;50.810;12.540;2022-09-09T05:48:46;2.97;;;1.20;;
20589;SDS011;10453;50.810;12.540;2022-09-09T05:53:04;3.25;;;1.10;;
20589;SDS011;10453;50.810;12.540;2022-09-09T05:57:21;3.42;;;1.10;;
20589;SDS011;10453;50.810;12.540;2022-09-09T06:01:39;2.65;;;1.35;;
20589;SDS011;10453;50.810;12.540;2022-09-09T06:06:00;4.30;;;1.08;;
20589;SDS011;10453;50.810;12.540;2022-09-09T06:10:21;3.38;;;1.42;;
20589;SDS011;10453;50.810;12.540;2022-09-09T06:14:39;7.07;;;1.40;;
20589;SDS011;10453;50.810;12.540;2022-09-09T06:19:02;4.45;;;1.23;;
20589;SDS011;10453;50.810;12.540;2022-09-09T06:23:19;4.03;;;1.20;;
20589;SDS011;10453;50.810;12.540;2022-09-09T06:27:37;2.22;;;1.10;;
20589;SDS011;10453;50.810;12.540;2022-09-09T06:31:54;4.60;;;1.30;;
20589;SDS011;10453;50.810;12.540;2022-09-09T06:36:12;7.93;;;1.33;;
20589;SDS011;10453;50.810;12.540;2022-09-09T06:40:34;5.00;;;1.40;;
20589;SDS011;10453;50.810;12.540;2022-09-09T06:44:51;4.93;;;1.40;;
20589;SDS011;10453;50.810;12.540;2022-09-09T06:49:09;4.90;;;1.13;;
20589;SDS011;10453;50.810;12.540;2022-09-09T06:53:26;4.38;;;1.10;;
20589;SDS011;10453;50.810;12.540;2022-09-09T06:57:43;3.83;;;1.10;;
20589;SDS011;10453;50.810;12.540;2022-09-09T07:02:01;5.82;;;1.17;;
20589;SDS011;10453;50.810;12.540;2022-09-09T07:06:22;4.45;;;1.30;;
20589;SDS011;10453;50.810;12.540;2022-09-09T07:10:41;5.28;;;1.40;;
20589;SDS011;10453;50.810;12.540;2022-09-09T07:15:00;6.53;;;1.45;;
20589;SDS011;10453;50.810;12.540;2022-09-09T07:19:17;7.57;;;2.05;;
20589;SDS011;10453;50.810;12.540;2022-09-09T07:23:34;4.88;;;1.35;;
20589;SDS011;10453;50.810;12.540;2022-09-09T07:27:55;14.27;;;2.53;;
20589;SDS011;10453;50.810;12.540;2022-09-09T07:32:12;6.38;;;2.45;;
20589;SDS011;10453;50.810;12.540;2022-09-09T07:36:31;7.43;;;2.33;;
20589;SDS011;10453;50.810;12.540;2022-09-09T07:40:49;7.95;;;2.97;;
20589;SDS011;10453;50.810;12.540;2022-09-09T07:45:07;7.22;;;2.20;;
20589;SDS011;10453;50.810;12.540;2022-09-09T07:49:24;3.22;;;1.55;;
20589;SDS011;10453;50.810;12.540;2022-09-09T07:53:48;3.55;;;1.55;;
20589;SDS011;10453;50.810;12.540;2022-09-09T07:58:08;4.63;;;1.92;;
20589;SDS011;10453;50.810;12.540;2022-09-09T08:02:25;4.95;;;2.03;;
20589;SDS011;10453;50.810;12.540;2022-09-09T08:11:07;3.67;;;1.38;;
20589;SDS011;10453;50.810;12.540;2022-09-09T08:15:29;6.50;;;1.55;;
20589;SDS011;10453;50.810;12.540;2022-09-09T08:19:47;4.33;;;1.40;;
20589;SDS011;10453;50.810;12.540;2022-09-09T08:24:05;5.40;;;1.40;;
20589;SDS011;10453;50.810;12.540;2022-09-09T08:28:23;6.00;;;1.27;;
20589;SDS011;10453;50.810;12.540;2022-09-09T08:32:41;3.80;;;1.35;;
20589;SDS011;10453;50.810;12.540;2022-09-09T08:37:02;4.05;;;1.33;;
20589;SDS011;10453;50.810;12.540;2022-09-09T08:41:35;3.00;;;1.02;;
20589;SDS011;10453;50.810;12.540;2022-09-09T08:46:25;5.00;;;1.20;;
20589;SDS011;10453;50.810;12.540;2022-09-09T08:50:45;3.28;;;1.23;;
20589;SDS011;10453;50.810;12.540;2022-09-09T08:59:42;6.25;;;1.40;;
20589;SDS011;10453;50.810;12.540;2022-09-09T09:04:14;4.40;;;1.27;;
20589;SDS011;10453;50.810;12.540;2022-09-09T09:08:43;3.70;;;1.40;;
20589;SDS011;10453;50.810;12.540;2022-09-09T09:13:15;3.33;;;1.40;;
20589;SDS011;10453;50.810;12.540;2022-09-09T09:17:37;4.28;;;1.20;;
20589;SDS011;10453;50.810;12.540;2022-09-09T09:22:06;3.83;;;1.10;;
20589;SDS011;10453;50.810;12.540;2022-09-09T09:26:38;5.53;;;2.13;;
20589;SDS011;10453;50.810;12.540;2022-09-09T09:31:09;3.65;;;1.27;;
20589;SDS011;10453;50.810;12.540;2022-09-09T09:35:27;2.88;;;1.10;;
20589;SDS011;10453;50.810;12.540;2022-09-09T09:39:45;4.20;;;1.35;;
20589;SDS011;10453;50.810;12.540;2022-09-09T09:44:22;3.10;;;1.35;;
20589;SDS011;10453;50.810;12.540;2022-09-09T09:48:43;2.63;;;1.27;;
20589;SDS011;10453;50.810;12.540;2022-09-09T09:53:03;2.17;;;1.33;;
20589;SDS011;10453;50.810;12.540;2022-09-09T09:57:28;3.70;;;1.30;;
20589;SDS011;10453;50.810;12.540;2022-09-09T10:01:47;5.20;;;1.35;;
20589;SDS011;10453;50.810;12.540;2022-09-09T10:06:05;2.58;;;1.23;;
20589;SDS011;10453;50.810;12.540;2022-09-09T10:10:25;3.00;;;1.23;;
20589;SDS011;10453;50.810;12.540;2022-09-09T10:14:55;3.53;;;1.20;;
20589;SDS011;10453;50.810;12.540;2022-09-09T10:19:33;2.90;;;1.30;;
20589;SDS011;10453;50.810;12.540;2022-09-09T10:24:17;2.72;;;1.00;;
20589;SDS011;10453;50.810;12.540;2022-09-09T10:28:54;1.88;;;1.00;;
20589;SDS011;10453;50.810;12.540;2022-09-09T10:38:30;4.70;;;1.20;;
20589;SDS011;10453;50.810;12.540;2022-09-09T10:42:54;5.05;;;0.93;;
20589;SDS011;10453;50.810;12.540;2022-09-09T10:56:53;3.25;;;1.17;;
20589;SDS011;10453;50.810;12.540;2022-09-09T11:01:18;2.60;;;1.17;;
20589;SDS011;10453;50.810;12.540;2022-09-09T11:05:44;3.80;;;1.15;;
20589;SDS011;10453;50.810;12.540;2022-09-09T11:10:06;4.60;;;1.20;;
20589;SDS011;10453;50.810;12.540;2022-09-09T11:24:10;5.15;;;1.10;;
20589;SDS011;10453;50.810;12.540;2022-09-09T11:28:19;3.58;;;0.80;;
20589;SDS011;10453;50.810;12.540;2022-09-09T11:42:29;5.68;;;0.85;;
20589;SDS011;10453;50.810;12.540;2022-09-09T11:46:47;4.32;;;0.90;;
20589;SDS011;10453;50.810;12.540;2022-09-09T11:51:08;4.55;;;0.98;;
20589;SDS011;10453;50.810;12.540;2022-09-09T11:55:33;3.95;;;0.93;;
20589;SDS011;10453;50.810;12.540;2022-09-09T11:59:53;4.88;;;1.02;;
20589;SDS011;10453;50.810;12.540;2022-09-09T12:04:15;5.00;;;1.40;;
20589;SDS011;10453;50.810;12.540;2022-09-09T12:08:39;4.30;;;1.17;;
20589;SDS011;10453;50.810;12.540;2022-09-09T12:13:19;3.13;;;0.82;;
20589;SDS011;10453;50.810;12.540;2022-09-09T12:17:43;4.72;;;1.08;;
20589;SDS011;10453;50.810;12.540;2022-09-09T12:22:14;4.50;;;1.10;;
20589;SDS011;10453;50.810;12.540;2022-09-09T12:31:08;6.22;;;1.33;;
20589;SDS011;10453;50.810;12.540;2022-09-09T12:35:34;4.85;;;1.13;;
20589;SDS011;10453;50.810;12.540;2022-09-09T12:39:56;2.80;;;0.90;;
20589;SDS011;10453;50.810;12.540;2022-09-09T12:44:16;4.68;;;1.10;;
20589;SDS011;10453;50.810;12.540;2022-09-09T12:48:36;3.40;;;1.10;;
20589;SDS011;10453;50.810;12.540;2022-09-09T12:53:02;4.15;;;0.98;;
20589;SDS011;10453;50.810;12.540;2022-09-09T12:57:24;4.13;;;1.00;;
20589;SDS011;10453;50.810;12.540;2022-09-09T13:01:42;4.80;;;1.20;;
20589;SDS011;10453;50.810;12.540;2022-09-09T13:06:19;4.93;;;0.90;;
20589;SDS011;10453;50.810;12.540;2022-09-09T13:10:52;5.28;;;1.23;;
20589;SDS011;10453;50.810;12.540;2022-09-09T13:15:20;4.22;;;1.15;;
20589;SDS011;10453;50.810;12.540;2022-09-09T13:19:39;5.47;;;1.23;;
20589;SDS011;10453;50.810;12.540;2022-09-09T13:24:02;6.82;;;1.20;;
20589;SDS011;10453;50.810;12.540;2022-09-09T13:28:28;8.52;;;1.55;;
20589;SDS011;10453;50.810;12.540;2022-09-09T13:37:47;6.00;;;1.25;;
20589;SDS011;10453;50.810;12.540;2022-09-09T13:42:04;4.60;;;0.98;;
20589;SDS011;10453;50.810;12.540;2022-09-09T13:50:54;4.47;;;1.02;;
20589;SDS011;10453;50.810;12.540;2022-09-09T13:55:15;3.97;;;0.77;;
20589;SDS011;10453;50.810;12.540;2022-09-09T13:59:33;1.95;;;0.68;;
20589;SDS011;10453;50.810;12.540;2022-09-09T14:04:10;4.55;;;1.13;;
20589;SDS011;10453;50.810;12.540;2022-09-09T14:08:28;2.60;;;0.90;;
20589;SDS011;10453;50.810;12.540;2022-09-09T14:12:53;2.13;;;0.70;;
20589;SDS011;10453;50.810;12.540;2022-09-09T14:17:10;1.90;;;0.77;;
20589;SDS011;10453;50.810;12.540;2022-09-09T14:21:28;1.52;;;0.70;;
20589;SDS011;10453;50.810;12.540;2022-09-09T14:25:45;3.53;;;0.80;;
20589;SDS011;10453;50.810;12.540;2022-09-09T14:30:03;1.98;;;0.93;;
20589;SDS011;10453;50.810;12.540;2022-09-09T14:34:21;4.27;;;0.80;;
20589;SDS011;10453;50.810;12.540;2022-09-09T14:38:38;4.22;;;1.40;;
20589;SDS011;10453;50.810;12.540;2022-09-09T14:42:59;5.13;;;0.80;;
20589;SDS011;10453;50.810;12.540;2022-09-09T14:47:16;4.05;;;0.90;;
20589;SDS011;10453;50.810;12.540;2022-09-09T14:51:33;8.13;;;0.98;;
20589;SDS011;10453;50.810;12.540;2022-09-09T14:55:50;3.30;;;0.85;;
20589;SDS011;10453;50.810;12.540;2022-09-09T15:00:08;3.15;;;0.85;;
20589;SDS011;10453;50.810;12.540;2022-09-09T15:04:26;4.75;;;1.15;;
20589;SDS011;10453;50.810;12.540;2022-09-09T15:08:44;2.63;;;0.90;;
20589;SDS011;10453;50.810;12.540;2022-09-09T15:13:02;6.35;;;0.82;;
20589;SDS011;10453;50.810;12.540;2022-09-09T15:17:20;2.70;;;0.98;;
20589;SDS011;10453;50.810;12.540;2022-09-09T15:21:37;3.83;;;1.35;;
20589;SDS011;10453;50.810;12.540;2022-09-09T15:25:55;2.80;;;1.10;;
20589;SDS011;10453;50.810;12.540;2022-09-09T15:30:14;1.70;;;0.90;;
20589;SDS011;10453;50.810;12.540;2022-09-09T15:34:31;2.58;;;1.10;;
20589;SDS011;10453;50.810;12.540;2022-09-09T15:38:48;3.35;;;1.33;;
20589;SDS011;10453;50.810;12.540;2022-09-09T15:43:07;4.67;;;1.27;;
20589;SDS011;10453;50.810;12.540;2022-09-09T15:47:25;4.85;;;1.40;;
20589;SDS011;10453;50.810;12.540;2022-09-09T15:51:45;2.83;;;1.10;;
20589;SDS011;10453;50.810;12.540;2022-09-09T15:56:03;3.25;;;1.45;;
20589;SDS011;10453;50.810;12.540;2022-09-09T16:00:21;2.15;;;1.00;;
20589;SDS011;10453;50.810;12.540;2022-09-09T16:04:39;2.50;;;1.10;;
20589;SDS011;10453;50.810;12.540;2022-09-09T16:08:57;2.83;;;1.00;;
20589;SDS011;10453;50.810;12.540;2022-09-09T16:13:16;2.72;;;1.10;;
20589;SDS011;10453;50.810;12.540;2022-09-09T16:17:33;3.15;;;1.20;;
20589;SDS011;10453;50.810;12.540;2022-09-09T16:21:54;3.63;;;1.10;;
20589;SDS011;10453;50.810;12.540;2022-09-09T16:26:11;3.20;;;1.10;;
20589;SDS011;10453;50.810;12.540;2022-09-09T16:30:30;3.30;;;1.08;;
20589;SDS011;10453;50.810;12.540;2022-09-09T16:34:47;4.35;;;1.35;;
20589;SDS011;10453;50.810;12.540;2022-09-09T16:39:05;4.90;;;0.98;;
20589;SDS011;10453;50.810;12.540;2022-09-09T16:43:25;2.03;;;0.98;;
20589;SDS011;10453;50.810;12.540;2022-09-09T16:47:43;2.25;;;1.23;;
20589;SDS011;10453;50.810;12.540;2022-09-09T16:52:01;3.17;;;0.90;;
20589;SDS011;10453;50.810;12.540;2022-09-09T16:56:19;2.00;;;0.68;;
20589;SDS011;10453;50.810;12.540;2022-09-09T17:00:38;0.85;;;0.65;;
20589;SDS011;10453;50.810;12.540;2022-09-09T17:04:55;2.67;;;1.08;;
20589;SDS011;10453;50.810;12.540;2022-09-09T17:09:13;0.85;;;0.60;;
20589;SDS011;10453;50.810;12.540;2022-09-09T17:13:31;3.15;;;0.80;;
20589;SDS011;10453;50.810;12.540;2022-09-09T17:17:48;4.03;;;0.80;;
20589;SDS011;10453;50.810;12.540;2022-09-09T17:22:06;2.40;;;1.70;;
20589;SDS011;10453;50.810;12.540;2022-09-09T17:26:38;3.88;;;1.40;;
20589;SDS011;10453;50.810;12.540;2022-09-09T17:30:57;3.08;;;0.90;;
20589;SDS011;10453;50.810;12.540;2022-09-09T17:35:17;1.90;;;0.93;;
20589;SDS011;10453;50.810;12.540;2022-09-09T17:39:35;1.58;;;0.95;;
20589;SDS011;10453;50.810;12.540;2022-09-09T17:43:52;2.33;;;0.88;;
20589;SDS011;10453;50.810;12.540;2022-09-09T17:48:11;0.87;;;0.70;;
20589;SDS011;10453;50.810;12.540;2022-09-09T17:52:28;2.22;;;1.05;;
20589;SDS011;10453;50.810;12.540;2022-09-09T18:01:08;1.58;;;0.75;;
20589;SDS011;10453;50.810;12.540;2022-09-09T18:05:28;1.88;;;0.90;;
20589;SDS011;10453;50.810;12.540;2022-09-09T18:09:45;3.17;;;0.90;;
20589;SDS011;10453;50.810;12.540;2022-09-09T18:14:03;1.48;;;1.00;;
20589;SDS011;10453;50.810;12.540;2022-09-09T18:18:21;1.53;;;1.17;;
20589;SDS011;10453;50.810;12.540;2022-09-09T18:22:39;3.00;;;1.70;;
20589;SDS011;10453;50.810;12.540;2022-09-09T18:26:56;3.25;;;2.38;;
20589;SDS011;10453;50.810;12.540;2022-09-09T18:31:14;2.58;;;1.33;;
20589;SDS011;10453;50.810;12.540;2022-09-09T18:35:34;3.92;;;1.35;;
20589;SDS011;10453;50.810;12.540;2022-09-09T18:39:53;3.90;;;2.28;;
20589;SDS011;10453;50.810;12.540;2022-09-09T18:44:12;4.53;;;3.38;;
20589;SDS011;10453;50.810;12.540;2022-09-09T18:48:36;6.00;;;2.90;;
20589;SDS011;10453;50.810;12.540;2022-09-09T18:52:54;3.63;;;2.13;;
20589;SDS011;10453;50.810;12.540;2022-09-09T18:57:11;3.42;;;1.80;;
20589;SDS011;10453;50.810;12.540;2022-09-09T19:01:28;4.00;;;1.83;;
20589;SDS011;10453;50.810;12.540;2022-09-09T19:05:46;1.73;;;1.42;;
20589;SDS011;10453;50.810;12.540;2022-09-09T19:10:03;2.67;;;1.33;;
20589;SDS011;10453;50.810;12.540;2022-09-09T19:14:21;5.60;;;1.40;;
20589;SDS011;10453;50.810;12.540;2022-09-09T19:18:38;2.60;;;1.23;;
20589;SDS011;10453;50.810;12.540;2022-09-09T19:22:56;3.67;;;1.27;;
20589;SDS011;10453;50.810;12.540;2022-09-09T19:27:13;2.30;;;1.30;;
20589;SDS011;10453;50.810;12.540;2022-09-09T19:31:30;2.53;;;1.30;;
20589;SDS011;10453;50.810;12.540;2022-09-09T19:35:55;3.95;;;1.20;;
20589;SDS011;10453;50.810;12.540;2022-09-09T19:40:20;3.30;;;1.40;;
20589;SDS011;10453;50.810;12.540;2022-09-09T19:44:38;2.17;;;1.30;;
20589;SDS011;10453;50.810;12.540;2022-09-09T19:48:55;2.40;;;1.33;;
20589;SDS011;10453;50.810;12.540;2022-09-09T19:53:13;1.90;;;1.23;;
20589;SDS011;10453;50.810;12.540;2022-09-09T19:57:31;4.43;;;1.05;;
20589;SDS011;10453;50.810;12.540;2022-09-09T20:01:48;3.08;;;1.40;;
20589;SDS011;10453;50.810;12.540;2022-09-09T20:06:06;3.20;;;1.10;;
20589;SDS011;10453;50.810;12.540;2022-09-09T20:10:26;1.90;;;1.05;;
20589;SDS011;10453;50.810;12.540;2022-09-09T20:14:43;1.83;;;0.90;;
20589;SDS011;10453;50.810;12.540;2022-09-09T20:19:01;2.75;;;0.90;;
20589;SDS011;10453;50.810;12.540;2022-09-09T20:23:19;3.65;;;1.50;;
20589;SDS011;10453;50.810;12.540;2022-09-09T20:27:36;2.55;;;1.25;;
20589;SDS011;10453;50.810;12.540;2022-09-09T20:31:53;4.03;;;1.17;;
20589;SDS011;10453;50.810;12.540;2022-09-09T20:36:21;4.38;;;1.30;;
20589;SDS011;10453;50.810;12.540;2022-09-09T20:40:42;2.45;;;1.30;;
20589;SDS011;10453;50.810;12.540;2022-09-09T20:44:59;2.85;;;1.20;;
20589;SDS011;10453;50.810;12.540;2022-09-09T20:49:18;4.43;;;1.23;;
20589;SDS011;10453;50.810;12.540;2022-09-09T20:53:36;3.05;;;1.33;;
20589;SDS011;10453;50.810;12.540;2022-09-09T20:57:54;2.22;;;1.17;;
20589;SDS011;10453;50.810;12.540;2022-09-09T21:02:13;2.03;;;0.90;;
20589;SDS011;10453;50.810;12.540;2022-09-09T21:06:30;2.33;;;1.00;;
20589;SDS011;10453;50.810;12.540;2022-09-09T21:10:47;2.85;;;1.10;;
20589;SDS011;10453;50.810;12.540;2022-09-09T21:15:05;2.10;;;1.13;;
20589;SDS011;10453;50.810;12.540;2022-09-09T21:19:22;2.20;;;1.10;;
20589;SDS011;10453;50.810;12.540;2022-09-09T21:23:40;3.55;;;1.10;;
20589;SDS011;10453;50.810;12.540;2022-09-09T21:27:57;3.63;;;1.02;;
20589;SDS011;10453;50.810;12.540;2022-09-09T21:32:14;3.30;;;1.00;;
20589;SDS011;10453;50.810;12.540;2022-09-09T21:36:33;2.13;;;1.10;;
20589;SDS011;10453;50.810;12.540;2022-09-09T21:40:51;5.43;;;1.08;;
20589;SDS011;10453;50.810;12.540;2022-09-09T21:45:09;4.07;;;1.20;;
20589;SDS011;10453;50.810;12.540;2022-09-09T21:49:26;2.25;;;1.10;;
20589;SDS011;10453;50.810;12.540;2022-09-09T21:53:44;2.63;;;1.00;;
20589;SDS011;10453;50.810;12.540;2022-09-09T21:58:02;1.63;;;1.00;;
20589;SDS011;10453;50.810;12.540;2022-09-09T22:02:20;1.95;;;0.85;;
20589;SDS011;10453;50.810;12.540;2022-09-09T22:06:38;2.95;;;1.17;;
20589;SDS011;10453;50.810;12.540;2022-09-09T22:10:55;3.10;;;1.00;;
20589;SDS011;10453;50.810;12.540;2022-09-09T22:15:13;2.93;;;1.20;;
20589;SDS011;10453;50.810;12.540;2022-09-09T22:19:31;3.20;;;1.10;;
20589;SDS011;10453;50.810;12.540;2022-09-09T22:23:51;4.38;;;1.42;;
20589;SDS011;10453;50.810;12.540;2022-09-09T22:28:13;2.15;;;1.08;;
20589;SDS011;10453;50.810;12.540;2022-09-09T22:32:30;2.47;;;1.13;;
20589;SDS011;10453;50.810;12.540;2022-09-09T22:36:47;3.58;;;1.17;;
20589;SDS011;10453;50.810;12.540;2022-09-09T22:41:06;4.43;;;1.30;;
20589;SDS011;10453;50.810;12.540;2022-09-09T22:45:23;2.78;;;1.00;;
20589;SDS011;10453;50.810;12.540;2022-09-09T22:49:40;4.25;;;1.20;;
20589;SDS011;10453;50.810;12.540;2022-09-09T22:53:58;4.22;;;1.40;;
20589;SDS011;10453;50.810;12.540;2022-09-09T22:58:15;4.50;;;1.10;;
20589;SDS011;10453;50.810;12.540;2022-09-09T23:02:32;1.85;;;1.35;;
20589;SDS011;10453;50.810;12.540;2022-09-09T23:06:56;4.50;;;1.23;;
20589;SDS011;10453;50.810;12.540;2022-09-09T23:11:13;4.93;;;1.40;;
20589;SDS011;10453;50.810;12.540;2022-09-09T23:15:30;2.75;;;1.20;;
20589;SDS011;10453;50.810;12.540;2022-09-09T23:19:48;7.25;;;1.40;;
20589;SDS011;10453;50.810;12.540;2022-09-09T23:24:12;3.63;;;1.08;;
20589;SDS011;10453;50.810;12.540;2022-09-09T23:28:31;2.70;;;1.02;;
20589;SDS011;10453;50.810;12.540;2022-09-09T23:32:51;5.13;;;1.25;;
20589;SDS011;10453;50.810;12.540;2022-09-09T23:37:08;3.13;;;1.08;;
20589;SDS011;10453;50.810;12.540;2022-09-09T23:41:26;3.17;;;1.15;;
20589;SDS011;10453;50.810;12.540;2022-09-09T23:45:43;5.13;;;1.30;;
20589;SDS011;10453;50.810;12.540;2022-09-09T23:50:01;3.65;;;1.33;;
20589;SDS011;10453;50.810;12.540;2022-09-09T23:54:18;3.65;;;1.13;;
20589;SDS011;10453;50.810;12.540;2022-09-09T23:58:35;2.45;;;1.20;;
